Time;durP1;ratioP1;P1;durP2;ratioP2;P2;SDS_P1;SDS_P2;PMS_P1;PMS_P2;Temp;Humidity;BMP_temperature;BMP_pressure;BME280_temperature;BME280_humidity;BME280_pressure;Samples;Min_cycle;Max_cycle;Signal;HPM_P1;HPM_P2
2023/09/14 00:00:21;;;;;;;3.55;1.20;;;;;;;;;;5037825;28;20044;-70
2023/09/14 00:02:47;;;;;;;2.47;1.27;;;;;;;;;;5037735;28;20494;-69
2023/09/14 00:05:13;;;;;;;3.45;1.20;;;;;;;;;;5036466;28;20124;-68
2023/09/14 00:07:39;;;;;;;2.78;1.15;;;;;;;;;;5037441;28;20025;-68
2023/09/14 00:10:05;;;;;;;2.17;1.00;;;;;;;;;;5037250;28;20084;-69
2023/09/14 00:12:31;;;;;;;2.13;1.10;;;;;;;;;;5037914;28;20067;-69
2023/09/14 00:14:57;;;;;;;3.70;1.38;;;;;;;;;;5037511;28;20026;-68
2023/09/14 00:17:23;;;;;;;2.50;1.20;;;;;;;;;;5036029;28;20013;-68
2023/09/14 00:19:49;;;;;;;3.15;1.30;;;;;;;;;;5037452;28;20089;-69
2023/09/14 00:22:15;;;;;;;1.63;1.02;;;;;;;;;;5037449;28;20120;-68
2023/09/14 00:24:41;;;;;;;2.70;1.33;;;;;;;;;;5036946;28;20017;-68
2023/09/14 00:27:07;;;;;;;3.05;1.67;;;;;;;;;;5037261;28;20030;-68
2023/09/14 00:29:33;;;;;;;2.85;1.27;;;;;;;;;;5035883;28;20026;-68
2023/09/14 00:31:59;;;;;;;2.78;1.33;;;;;;;;;;5037173;28;20021;-68
2023/09/14 00:34:25;;;;;;;4.57;1.23;;;;;;;;;;5035830;28;20029;-68
2023/09/14 00:36:50;;;;;;;2.55;1.25;;;;;;;;;;5037003;28;20397;-68
2023/09/14 00:39:16;;;;;;;2.75;1.67;;;;;;;;;;5036961;28;20018;-68
2023/09/14 00:41:42;;;;;;;2.10;1.20;;;;;;;;;;5036872;28;20014;-68
2023/09/14 00:44:08;;;;;;;3.85;1.60;;;;;;;;;;5036929;28;20100;-68
2023/09/14 00:46:35;;;;;;;2.55;1.30;;;;;;;;;;5036674;28;20496;-68
2023/09/14 00:49:01;;;;;;;3.13;1.42;;;;;;;;;;5037070;28;20093;-68
2023/09/14 00:51:29;;;;;;;3.00;1.73;;;;;;;;;;5036837;28;20025;-68
2023/09/14 00:53:55;;;;;;;3.65;1.90;;;;;;;;;;5038645;28;20033;-69
2023/09/14 00:56:21;;;;;;;2.17;1.40;;;;;;;;;;5036916;28;20045;-69
2023/09/14 00:58:47;;;;;;;4.20;1.75;;;;;;;;;;5035657;28;20072;-68
2023/09/14 01:01:14;;;;;;;2.63;1.50;;;;;;;;;;5037059;28;20076;-69
2023/09/14 01:03:40;;;;;;;3.40;1.60;;;;;;;;;;5037062;28;20021;-69
2023/09/14 01:06:07;;;;;;;4.38;2.10;;;;;;;;;;5036944;28;20013;-68
2023/09/14 01:08:33;;;;;;;2.80;1.80;;;;;;;;;;5037075;28;20021;-68
2023/09/14 01:11:00;;;;;;;2.38;1.70;;;;;;;;;;5036312;28;20504;-68
2023/09/14 01:13:52;;;;;;;4.15;1.90;;;;;;;;;;5037947;28;20030;-68
2023/09/14 01:16:26;;;;;;;4.80;1.80;;;;;;;;;;5033077;28;20049;-68
2023/09/14 01:18:52;;;;;;;;;;;;;;;;;;5036740;28;20029;-68
2023/09/14 01:21:31;;;;;;;3.38;1.98;;;;;;;;;;5036277;28;19911;-68
2023/09/14 01:24:00;;;;;;;2.13;1.80;;;;;;;;;;5034860;28;20017;-69
2023/09/14 01:26:27;;;;;;;2.75;1.92;;;;;;;;;;5035331;28;20017;-68
2023/09/14 01:28:53;;;;;;;4.78;2.47;;;;;;;;;;5036530;28;20053;-69
2023/09/14 01:31:19;;;;;;;3.65;2.00;;;;;;;;;;5036682;28;20027;-69
2023/09/14 01:33:48;;;;;;;3.08;1.95;;;;;;;;;;5036407;28;20507;-69
2023/09/14 01:36:29;;;;;;;2.03;1.60;;;;;;;;;;5034387;28;20389;-69
2023/09/14 01:38:55;;;;;;;4.60;2.10;;;;;;;;;;5035051;28;20460;-69
2023/09/14 01:41:21;;;;;;;2.58;1.80;;;;;;;;;;5036130;28;20044;-69
2023/09/14 01:43:49;;;;;;;3.42;1.67;;;;;;;;;;5035892;28;20029;-69
2023/09/14 01:46:16;;;;;;;2.58;1.80;;;;;;;;;;5034969;28;20453;-68
2023/09/14 01:48:43;;;;;;;2.53;1.85;;;;;;;;;;5035054;28;20032;-69
2023/09/14 01:51:09;;;;;;;2.28;1.70;;;;;;;;;;5036279;28;20025;-69
2023/09/14 01:53:35;;;;;;;2.22;1.60;;;;;;;;;;5036413;28;20029;-69
2023/09/14 01:56:01;;;;;;;4.22;1.75;;;;;;;;;;5035626;28;20030;-68
2023/09/14 01:58:27;;;;;;;2.63;1.90;;;;;;;;;;5035720;28;20034;-69
2023/09/14 02:00:53;;;;;;;2.30;1.85;;;;;;;;;;5035779;28;20549;-69
2023/09/14 02:03:19;;;;;;;2.42;1.70;;;;;;;;;;5035712;28;20092;-69
2023/09/14 02:05:45;;;;;;;3.00;1.80;;;;;;;;;;5035605;28;20524;-70
2023/09/14 02:08:11;;;;;;;4.32;1.95;;;;;;;;;;5035730;28;20064;-70
2023/09/14 02:10:37;;;;;;;2.72;1.90;;;;;;;;;;5035283;28;20116;-69
2023/09/14 02:13:03;;;;;;;6.30;2.50;;;;;;;;;;5035708;28;20033;-70
2023/09/14 02:15:29;;;;;;;5.43;2.28;;;;;;;;;;5035845;28;20022;-69
2023/09/14 02:17:55;;;;;;;3.75;2.20;;;;;;;;;;5036008;28;20037;-69
2023/09/14 02:20:21;;;;;;;6.45;2.20;;;;;;;;;;5035986;28;20017;-69
2023/09/14 02:22:47;;;;;;;3.10;1.98;;;;;;;;;;5035984;28;20079;-69
2023/09/14 02:25:13;;;;;;;4.40;1.98;;;;;;;;;;5035628;28;20014;-70
2023/09/14 02:27:39;;;;;;;4.15;1.77;;;;;;;;;;5035911;28;20029;-69
2023/09/14 02:30:06;;;;;;;4.75;1.80;;;;;;;;;;5035732;28;20025;-70
2023/09/14 02:32:32;;;;;;;2.63;1.52;;;;;;;;;;5035980;28;20056;-69
2023/09/14 02:34:58;;;;;;;2.92;1.80;;;;;;;;;;5035913;28;20401;-69
2023/09/14 02:37:24;;;;;;;2.50;1.85;;;;;;;;;;5033148;28;20021;-69
2023/09/14 02:39:50;;;;;;;3.83;1.80;;;;;;;;;;5034591;28;20097;-69
2023/09/14 02:42:16;;;;;;;3.15;1.73;;;;;;;;;;5034519;28;20536;-69
2023/09/14 02:44:43;;;;;;;2.58;1.70;;;;;;;;;;5035765;28;20529;-68
2023/09/14 02:47:09;;;;;;;2.25;1.60;;;;;;;;;;5035687;28;20018;-70
2023/09/14 02:49:35;;;;;;;3.63;1.60;;;;;;;;;;5035731;28;20532;-70
2023/09/14 02:52:01;;;;;;;2.30;1.52;;;;;;;;;;5035697;28;20068;-70
2023/09/14 02:54:27;;;;;;;3.33;1.73;;;;;;;;;;5035441;28;20389;-70
2023/09/14 02:56:53;;;;;;;2.85;1.40;;;;;;;;;;5037560;28;20037;-68
2023/09/14 02:59:19;;;;;;;2.33;1.40;;;;;;;;;;5039469;28;20040;-68
2023/09/14 03:01:45;;;;;;;2.35;1.45;;;;;;;;;;5039314;28;20076;-68
2023/09/14 03:04:13;;;;;;;2.72;1.40;;;;;;;;;;5037855;28;20075;-68
2023/09/14 03:06:39;;;;;;;3.83;1.90;;;;;;;;;;5039331;28;20024;-68
2023/09/14 03:09:05;;;;;;;2.30;1.50;;;;;;;;;;5038907;28;20027;-68
2023/09/14 03:11:31;;;;;;;2.97;1.63;;;;;;;;;;5039111;28;20030;-69
2023/09/14 03:13:57;;;;;;;1.92;1.40;;;;;;;;;;5040672;28;20029;-69
2023/09/14 03:16:23;;;;;;;2.92;1.50;;;;;;;;;;5039171;28;20099;-69
2023/09/14 03:18:49;;;;;;;3.10;1.40;;;;;;;;;;5037592;28;20490;-69
2023/09/14 03:21:28;;;;;;;2.17;1.50;;;;;;;;;;5039197;28;20389;-69
2023/09/14 03:23:55;;;;;;;1.75;1.20;;;;;;;;;;5036924;28;20022;-69
2023/09/14 03:26:23;;;;;;;2.10;1.40;;;;;;;;;;5038426;28;20028;-69
2023/09/14 03:28:49;;;;;;;3.13;1.65;;;;;;;;;;5038267;28;20021;-69
2023/09/14 03:31:16;;;;;;;3.83;1.70;;;;;;;;;;5038358;28;20022;-69
2023/09/14 03:33:42;;;;;;;2.33;1.55;;;;;;;;;;5038309;28;20026;-70
2023/09/14 03:36:08;;;;;;;2.55;1.27;;;;;;;;;;5038165;28;20508;-70
2023/09/14 03:38:34;;;;;;;3.38;1.30;;;;;;;;;;5037827;28;20084;-70
2023/09/14 03:41:00;;;;;;;2.10;1.50;;;;;;;;;;5037779;28;20077;-70
2023/09/14 03:43:26;;;;;;;2.13;1.20;;;;;;;;;;5038150;28;20048;-68
2023/09/14 03:45:52;;;;;;;3.47;1.50;;;;;;;;;;5038523;28;20521;-69
2023/09/14 03:48:18;;;;;;;2.50;1.30;;;;;;;;;;5038668;28;20394;-69
2023/09/14 03:50:44;;;;;;;3.40;1.67;;;;;;;;;;5038378;28;20036;-69
2023/09/14 03:53:10;;;;;;;2.95;1.60;;;;;;;;;;5039776;28;20052;-68
2023/09/14 03:55:36;;;;;;;3.00;1.40;;;;;;;;;;5038015;28;20057;-69
2023/09/14 03:58:02;;;;;;;1.25;1.00;;;;;;;;;;5037171;28;20421;-68
2023/09/14 04:00:29;;;;;;;2.58;1.35;;;;;;;;;;5037066;28;20064;-68
2023/09/14 04:02:55;;;;;;;2.95;1.35;;;;;;;;;;5038270;28;20021;-68
2023/09/14 04:05:21;;;;;;;3.00;1.60;;;;;;;;;;5036870;28;20097;-69
2023/09/14 04:07:47;;;;;;;2.85;1.45;;;;;;;;;;5036483;28;20494;-69
2023/09/14 04:10:13;;;;;;;2.38;1.85;;;;;;;;;;5037988;28;20056;-69
2023/09/14 04:12:43;;;;;;;3.30;1.65;;;;;;;;;;5038580;28;20041;-69
2023/09/14 04:15:09;;;;;;;1.98;1.45;;;;;;;;;;5036315;28;20026;-69
2023/09/14 04:17:35;;;;;;;4.30;2.45;;;;;;;;;;5036005;28;20048;-69
2023/09/14 04:20:10;;;;;;;2.47;2.13;;;;;;;;;;5039753;28;20028;-69
2023/09/14 04:22:37;;;;;;;2.67;1.80;;;;;;;;;;5036461;28;20023;-69
2023/09/14 04:25:03;;;;;;;2.10;1.58;;;;;;;;;;5037351;28;20068;-69
2023/09/14 04:27:29;;;;;;;2.40;1.63;;;;;;;;;;5035697;28;20100;-69
2023/09/14 04:29:56;;;;;;;2.50;1.92;;;;;;;;;;5037834;28;20844;-69
2023/09/14 04:32:22;;;;;;;3.28;2.15;;;;;;;;;;5038006;28;20056;-68
2023/09/14 04:34:48;;;;;;;3.60;2.22;;;;;;;;;;5036405;28;20033;-69
2023/09/14 04:37:14;;;;;;;2.17;1.75;;;;;;;;;;5036321;28;20025;-69
2023/09/14 04:39:40;;;;;;;3.40;2.10;;;;;;;;;;5035651;28;20014;-69
2023/09/14 04:42:06;;;;;;;3.22;1.73;;;;;;;;;;5037568;28;20021;-69
2023/09/14 04:44:32;;;;;;;2.70;1.80;;;;;;;;;;5035955;28;20030;-69
2023/09/14 04:46:58;;;;;;;3.42;1.60;;;;;;;;;;5037232;28;20030;-68
2023/09/14 04:49:24;;;;;;;2.03;1.58;;;;;;;;;;5037381;28;20021;-69
2023/09/14 04:51:50;;;;;;;1.98;1.42;;;;;;;;;;5037193;28;20044;-69
2023/09/14 04:54:16;;;;;;;2.35;1.45;;;;;;;;;;5037226;28;20017;-69
2023/09/14 04:56:42;;;;;;;2.22;1.65;;;;;;;;;;5037142;28;20029;-68
2023/09/14 04:59:08;;;;;;;1.60;1.40;;;;;;;;;;5035806;28;20488;-69
2023/09/14 05:01:34;;;;;;;1.92;1.55;;;;;;;;;;5036997;28;20024;-69
2023/09/14 05:04:00;;;;;;;2.33;1.60;;;;;;;;;;5033724;28;20017;-69
2023/09/14 05:06:26;;;;;;;2.30;1.60;;;;;;;;;;5037188;28;20017;-70
2023/09/14 05:08:52;;;;;;;2.55;1.50;;;;;;;;;;5036834;28;20035;-69
2023/09/14 05:11:18;;;;;;;2.28;1.70;;;;;;;;;;5034562;28;20033;-69
2023/09/14 05:13:44;;;;;;;2.60;1.55;;;;;;;;;;5037735;28;20029;-70
2023/09/14 05:16:10;;;;;;;2.78;1.60;;;;;;;;;;5036680;28;20025;-68
2023/09/14 05:18:36;;;;;;;2.47;1.90;;;;;;;;;;5036026;28;20068;-69
2023/09/14 05:21:02;;;;;;;2.67;1.80;;;;;;;;;;5034645;28;20439;-69
2023/09/14 05:23:28;;;;;;;3.15;2.45;;;;;;;;;;5028708;28;20040;-69
2023/09/14 05:25:54;;;;;;;2.85;1.88;;;;;;;;;;5030114;28;20008;-69
2023/09/14 05:28:20;;;;;;;2.88;2.38;;;;;;;;;;5028281;28;20486;-69
2023/09/14 05:30:46;;;;;;;5.40;2.28;;;;;;;;;;5028532;28;20029;-68
2023/09/14 05:33:13;;;;;;;2.67;2.03;;;;;;;;;;5033959;28;20025;-69
2023/09/14 05:35:40;;;;;;;3.13;1.90;;;;;;;;;;5030351;28;20098;-68
2023/09/14 05:38:06;;;;;;;3.13;1.65;;;;;;;;;;5022367;28;20029;-68
2023/09/14 05:40:35;;;;;;;3.65;1.80;;;;;;;;;;5029288;28;20021;-69
2023/09/14 05:43:01;;;;;;;6.95;2.55;;;;;;;;;;5028355;28;20429;-69
2023/09/14 05:45:27;;;;;;;4.18;2.25;;;;;;;;;;5028430;28;20067;-69
2023/09/14 05:47:53;;;;;;;3.20;1.83;;;;;;;;;;5027173;28;20075;-69
2023/09/14 05:50:19;;;;;;;5.07;2.17;;;;;;;;;;5027850;28;20017;-70
2023/09/14 05:52:45;;;;;;;8.07;2.17;;;;;;;;;;5030569;28;20038;-70
2023/09/14 05:55:11;;;;;;;4.75;1.65;;;;;;;;;;5024880;28;20018;-69
2023/09/14 05:57:37;;;;;;;5.68;1.80;;;;;;;;;;5023825;28;20049;-70
2023/09/14 06:00:13;;;;;;;2.58;1.60;;;;;;;;;;5032146;28;20072;-66
2023/09/14 06:02:42;;;;;;;6.70;1.80;;;;;;;;;;5035572;28;20025;-66
2023/09/14 06:05:09;;;;;;;2.58;1.40;;;;;;;;;;5032702;28;20464;-67
2023/09/14 06:07:35;;;;;;;5.15;1.63;;;;;;;;;;5036450;28;20482;-67
2023/09/14 06:10:01;;;;;;;2.15;1.42;;;;;;;;;;5036151;28;20025;-67
2023/09/14 06:12:29;;;;;;;4.50;1.88;;;;;;;;;;5032207;28;20029;-66
2023/09/14 06:14:55;;;;;;;2.10;1.48;;;;;;;;;;5036597;28;20026;-66
2023/09/14 06:17:21;;;;;;;3.63;1.70;;;;;;;;;;5036598;28;20025;-65
2023/09/14 06:19:47;;;;;;;2.22;1.35;;;;;;;;;;5035505;28;20600;-68
2023/09/14 06:22:13;;;;;;;3.10;1.33;;;;;;;;;;5036817;28;20526;-68
2023/09/14 06:24:39;;;;;;;6.28;1.63;;;;;;;;;;5036567;28;20032;-67
2023/09/14 06:27:05;;;;;;;2.08;1.50;;;;;;;;;;5036483;28;20025;-67
2023/09/14 06:29:31;;;;;;;1.83;1.23;;;;;;;;;;5037077;28;20018;-66
2023/09/14 06:31:57;;;;;;;3.30;1.48;;;;;;;;;;5040640;28;20092;-66
2023/09/14 06:34:23;;;;;;;4.13;1.60;;;;;;;;;;5038962;28;20052;-66
2023/09/14 06:36:49;;;;;;;1.33;1.20;;;;;;;;;;5039296;28;20041;-68
2023/09/14 06:39:15;;;;;;;3.50;1.67;;;;;;;;;;5039934;28;20030;-66
2023/09/14 06:41:41;;;;;;;4.18;1.42;;;;;;;;;;5040133;28;20021;-65
2023/09/14 06:44:08;;;;;;;2.55;1.45;;;;;;;;;;5040489;28;20022;-65
2023/09/14 06:46:34;;;;;;;5.35;1.50;;;;;;;;;;5039922;28;20021;-66
2023/09/14 06:49:00;;;;;;;3.75;1.50;;;;;;;;;;5038511;28;20025;-66
2023/09/14 06:51:28;;;;;;;3.05;0.95;;;;;;;;;;5038411;28;20136;-66
2023/09/14 06:53:54;;;;;;;4.47;1.10;;;;;;;;;;5040985;28;20061;-67
2023/09/14 06:56:20;;;;;;;4.90;1.30;;;;;;;;;;5038883;28;20041;-66
2023/09/14 06:58:46;;;;;;;1.77;0.90;;;;;;;;;;5039741;28;20036;-66
2023/09/14 07:01:12;;;;;;;1.30;1.20;;;;;;;;;;5039861;28;20068;-65
2023/09/14 07:03:38;;;;;;;1.20;1.10;;;;;;;;;;5039926;28;20014;-65
2023/09/14 07:06:04;;;;;;;2.03;0.95;;;;;;;;;;5037961;28;20482;-66
2023/09/14 07:08:30;;;;;;;1.10;1.00;;;;;;;;;;5040276;28;20029;-66
2023/09/14 07:10:57;;;;;;;2.20;1.65;;;;;;;;;;5038502;28;20840;-66
2023/09/14 07:13:23;;;;;;;1.15;0.80;;;;;;;;;;5040217;28;20108;-66
2023/09/14 07:15:49;;;;;;;1.48;1.35;;;;;;;;;;5040056;28;20477;-66
2023/09/14 07:18:26;;;;;;;2.80;1.60;;;;;;;;;;5040148;28;20090;-66
2023/09/14 07:20:52;;;;;;;2.45;1.40;;;;;;;;;;5039683;28;20053;-66
2023/09/14 07:23:18;;;;;;;1.30;1.10;;;;;;;;;;5040204;28;20021;-66
2023/09/14 07:25:44;;;;;;;2.58;1.20;;;;;;;;;;5038257;28;21158;-65
2023/09/14 07:28:12;;;;;;;2.13;1.60;;;;;;;;;;5038606;28;20049;-65
2023/09/14 07:30:38;;;;;;;2.63;1.35;;;;;;;;;;5039870;28;20026;-65
2023/09/14 07:33:05;;;;;;;3.72;1.40;;;;;;;;;;5040024;28;20466;-65
2023/09/14 07:35:31;;;;;;;3.20;1.90;;;;;;;;;;5039637;28;20025;-65
2023/09/14 07:37:57;;;;;;;2.28;1.55;;;;;;;;;;5038293;28;20064;-65
2023/09/14 07:40:23;;;;;;;1.52;1.25;;;;;;;;;;5028179;28;20556;-65
2023/09/14 07:42:49;;;;;;;2.53;1.20;;;;;;;;;;5038963;28;20021;-67
2023/09/14 07:45:15;;;;;;;1.77;1.27;;;;;;;;;;5038249;28;20521;-65
2023/09/14 07:47:41;;;;;;;2.42;1.60;;;;;;;;;;5039370;28;20530;-66
2023/09/14 07:50:08;;;;;;;2.10;1.50;;;;;;;;;;5039706;28;20470;-66
2023/09/14 07:52:34;;;;;;;2.25;1.52;;;;;;;;;;5041038;28;20025;-66
2023/09/14 07:55:02;;;;;;;2.35;1.27;;;;;;;;;;5039270;28;20033;-65
2023/09/14 07:57:29;;;;;;;2.45;1.42;;;;;;;;;;5039008;28;20039;-65
2023/09/14 07:59:55;;;;;;;1.70;1.48;;;;;;;;;;5039607;28;20091;-65
2023/09/14 08:02:21;;;;;;;2.13;1.40;;;;;;;;;;5039342;28;20021;-65
2023/09/14 08:04:47;;;;;;;2.75;1.63;;;;;;;;;;5037959;28;20026;-65
2023/09/14 08:07:15;;;;;;;1.95;1.60;;;;;;;;;;5039337;28;20044;-65
2023/09/14 08:09:41;;;;;;;1.95;1.60;;;;;;;;;;5038923;28;20032;-65
2023/09/14 08:12:07;;;;;;;2.10;1.90;;;;;;;;;;5039034;28;20022;-65
2023/09/14 08:14:33;;;;;;;2.40;1.60;;;;;;;;;;5039133;28;20026;-65
2023/09/14 08:16:59;;;;;;;2.10;1.77;;;;;;;;;;5038716;28;20064;-66
2023/09/14 08:19:25;;;;;;;1.98;1.70;;;;;;;;;;5038898;28;20021;-66
2023/09/14 08:21:52;;;;;;;3.25;1.65;;;;;;;;;;5037292;28;20025;-65
2023/09/14 08:24:18;;;;;;;2.45;1.80;;;;;;;;;;5038536;28;20025;-65
2023/09/14 08:26:44;;;;;;;2.45;1.50;;;;;;;;;;5038678;28;20033;-65
2023/09/14 08:29:11;;;;;;;2.95;2.15;;;;;;;;;;5038752;28;20497;-66
2023/09/14 08:31:37;;;;;;;2.22;1.27;;;;;;;;;;5039024;28;20026;-66
2023/09/14 08:34:03;;;;;;;2.78;1.80;;;;;;;;;;5038790;28;20037;-66
2023/09/14 08:36:29;;;;;;;3.38;1.73;;;;;;;;;;5038698;28;20258;-66
2023/09/14 08:38:55;;;;;;;2.63;1.50;;;;;;;;;;5037131;28;20029;-66
2023/09/14 08:41:36;;;;;;;2.35;1.80;;;;;;;;;;5038062;28;20101;-66
2023/09/14 08:44:02;;;;;;;3.08;1.50;;;;;;;;;;5038449;28;20025;-66
2023/09/14 08:46:29;;;;;;;3.53;1.52;;;;;;;;;;5038165;28;20025;-65
2023/09/14 08:48:56;;;;;;;1.73;1.17;;;;;;;;;;5038146;28;20036;-65
2023/09/14 08:51:23;;;;;;;2.00;1.40;;;;;;;;;;5036758;28;20029;-65
2023/09/14 08:53:49;;;;;;;2.97;1.80;;;;;;;;;;5039959;28;20026;-65
2023/09/14 08:56:16;;;;;;;4.60;1.88;;;;;;;;;;5036384;28;20049;-65
2023/09/14 08:58:43;;;;;;;6.68;1.70;;;;;;;;;;5036822;28;20038;-66
2023/09/14 09:01:10;;;;;;;2.65;1.45;;;;;;;;;;5038063;28;20021;-66
2023/09/14 09:03:36;;;;;;;3.42;1.63;;;;;;;;;;5038151;28;20026;-65
2023/09/14 09:06:02;;;;;;;3.88;1.42;;;;;;;;;;5038018;28;20560;-65
2023/09/14 09:08:28;;;;;;;2.78;1.40;;;;;;;;;;5038210;28;20033;-65
2023/09/14 09:10:54;;;;;;;4.03;1.38;;;;;;;;;;5037576;28;20072;-65
2023/09/14 09:13:22;;;;;;;2.83;1.17;;;;;;;;;;5037973;28;20033;-65
2023/09/14 09:15:48;;;;;;;3.50;1.30;;;;;;;;;;5037684;28;20456;-65
2023/09/14 09:18:14;;;;;;;3.40;1.50;;;;;;;;;;5037677;28;20029;-65
2023/09/14 09:20:41;;;;;;;3.85;1.33;;;;;;;;;;5037574;28;20021;-65
2023/09/14 09:23:07;;;;;;;3.75;1.35;;;;;;;;;;5037797;28;20025;-66
2023/09/14 09:25:47;;;;;;;3.00;1.10;;;;;;;;;;5037262;28;20021;-66
2023/09/14 09:28:13;;;;;;;3.38;1.40;;;;;;;;;;5037475;28;20021;-66
2023/09/14 09:30:39;;;;;;;2.78;1.40;;;;;;;;;;5037758;28;20044;-66
2023/09/14 09:33:06;;;;;;;3.38;0.95;;;;;;;;;;5037516;28;20052;-66
2023/09/14 09:35:34;;;;;;;4.00;1.33;;;;;;;;;;5037675;28;20040;-66
2023/09/14 09:38:00;;;;;;;1.92;1.02;;;;;;;;;;5035918;28;20056;-66
2023/09/14 09:40:27;;;;;;;2.13;0.90;;;;;;;;;;5037172;28;20438;-66
2023/09/14 09:42:54;;;;;;;3.13;1.10;;;;;;;;;;5037479;28;20120;-66
2023/09/14 09:45:21;;;;;;;3.97;1.42;;;;;;;;;;5035035;28;20929;-66
2023/09/14 09:47:47;;;;;;;3.15;1.38;;;;;;;;;;5037238;28;20028;-66
2023/09/14 09:50:14;;;;;;;4.45;1.65;;;;;;;;;;5036313;28;20421;-66
2023/09/14 09:52:40;;;;;;;4.65;2.00;;;;;;;;;;5037320;28;20792;-66
2023/09/14 09:55:07;;;;;;;4.85;1.20;;;;;;;;;;5037031;28;20025;-65
2023/09/14 09:57:35;;;;;;;4.40;1.40;;;;;;;;;;5036982;28;20045;-65
2023/09/14 10:00:11;;;;;;;3.25;1.10;;;;;;;;;;5035938;28;20029;-65
2023/09/14 10:02:37;;;;;;;2.22;1.00;;;;;;;;;;5037146;28;20108;-65
2023/09/14 10:05:04;;;;;;;1.45;0.90;;;;;;;;;;5036981;28;20057;-65
2023/09/14 10:07:30;;;;;;;2.80;0.90;;;;;;;;;;5036975;28;20454;-65
2023/09/14 10:09:56;;;;;;;2.35;0.77;;;;;;;;;;5036821;28;20025;-65
2023/09/14 10:12:27;;;;;;;3.60;1.30;;;;;;;;;;5036875;28;20030;-65
2023/09/14 10:14:59;;;;;;;3.33;1.25;;;;;;;;;;5036603;28;20104;-64
2023/09/14 10:17:30;;;;;;;3.45;1.05;;;;;;;;;;5036845;28;20025;-64
2023/09/14 10:19:58;;;;;;;2.17;0.80;;;;;;;;;;5037128;28;20060;-64
2023/09/14 10:22:25;;;;;;;1.75;0.98;;;;;;;;;;5036698;28;20044;-64
2023/09/14 10:24:53;;;;;;;2.35;0.90;;;;;;;;;;5036565;28;20037;-64
2023/09/14 10:27:19;;;;;;;3.17;1.05;;;;;;;;;;5036383;28;20052;-64
2023/09/14 10:29:45;;;;;;;2.88;0.90;;;;;;;;;;5034997;28;20061;-64
2023/09/14 10:32:12;;;;;;;2.40;0.98;;;;;;;;;;5036095;28;20013;-65
2023/09/14 10:34:39;;;;;;;4.28;0.80;;;;;;;;;;5036307;28;20124;-64
2023/09/14 10:37:06;;;;;;;1.92;0.90;;;;;;;;;;5036117;28;20463;-64
2023/09/14 10:39:32;;;;;;;3.58;0.75;;;;;;;;;;5035509;28;20029;-64
2023/09/14 10:41:58;;;;;;;3.10;0.93;;;;;;;;;;5035804;28;20028;-64
2023/09/14 10:44:24;;;;;;;3.33;0.90;;;;;;;;;;5034764;28;20106;-67
2023/09/14 10:46:55;;;;;;;3.05;1.13;;;;;;;;;;5036050;28;20025;-67
2023/09/14 10:49:25;;;;;;;3.53;1.10;;;;;;;;;;5034732;28;20032;-68
2023/09/14 10:51:52;;;;;;;2.78;1.30;;;;;;;;;;5034779;28;20394;-67
2023/09/14 10:54:22;;;;;;;3.00;1.35;;;;;;;;;;5037494;28;20490;-66
2023/09/14 10:56:48;;;;;;;3.33;1.20;;;;;;;;;;5035644;28;20457;-66
2023/09/14 10:59:14;;;;;;;2.53;0.95;;;;;;;;;;5034485;28;20120;-67
2023/09/14 11:01:47;;;;;;;3.03;1.50;;;;;;;;;;5036017;28;20021;-66
2023/09/14 11:04:13;;;;;;;;;;;;;;;;;;5036411;28;20035;-66
2023/09/14 11:06:42;;;;;;;1.90;1.10;;;;;;;;;;5034415;28;19928;-66
2023/09/14 11:09:08;;;;;;;2.20;1.20;;;;;;;;;;5035623;28;20022;-66
2023/09/14 11:11:39;;;;;;;2.95;1.13;;;;;;;;;;5035660;28;20143;-66
2023/09/14 11:14:07;;;;;;;2.00;1.40;;;;;;;;;;5035709;28;20064;-66
2023/09/14 11:16:52;;;;;;;4.35;1.20;;;;;;;;;;5036122;28;20029;-65
2023/09/14 11:19:34;;;;;;;1.75;1.00;;;;;;;;;;5039499;28;20022;-65
2023/09/14 11:22:13;;;;;;;2.67;0.85;;;;;;;;;;5037778;28;20029;-65
2023/09/14 11:24:40;;;;;;;1.90;1.00;;;;;;;;;;5037350;28;20072;-66
2023/09/14 11:27:06;;;;;;;1.58;1.00;;;;;;;;;;5039329;28;20021;-66
2023/09/14 11:29:32;;;;;;;1.73;0.80;;;;;;;;;;5039295;28;20018;-67
2023/09/14 11:32:03;;;;;;;2.22;0.88;;;;;;;;;;5039413;28;20025;-67
2023/09/14 11:34:31;;;;;;;2.15;1.00;;;;;;;;;;5039222;28;20060;-66
2023/09/14 11:37:01;;;;;;;3.25;0.93;;;;;;;;;;5039282;28;20021;-65
2023/09/14 11:39:28;;;;;;;1.17;0.90;;;21.20;99.90;;;;;;5037353;28;20049;-66
2023/09/14 11:41:57;;;;;;;1.10;0.70;;;21.20;99.00;;;;;;5038668;28;20086;-66
2023/09/14 11:44:23;;;;;;;1.90;1.10;;;21.30;99.30;;;;;;5039191;28;20025;-66
2023/09/14 11:46:50;;;;;;;2.00;1.35;;;21.50;97.40;;;;;;5038779;28;20022;-66
2023/09/14 11:49:18;;;;;;;3.15;1.00;;;21.50;95.90;;;;;;5039212;28;20096;-66
2023/09/14 11:51:43;;;;;;;1.42;0.95;;;21.50;95.90;;;;;;5037997;28;20022;-66
2023/09/14 11:54:09;;;;;;;3.45;0.93;;;21.60;95.10;;;;;;5039995;28;20013;-66
2023/09/14 11:56:35;;;;;;;1.20;1.00;;;21.70;94.60;;;;;;5038775;28;20041;-66
2023/09/14 11:59:02;;;;;;;1.70;1.10;;;21.60;93.70;;;;;;5038944;28;20390;-66
2023/09/14 12:01:34;;;;;;;2.38;0.90;;;21.50;93.40;;;;;;5039006;28;20429;-66
2023/09/14 12:04:02;;;;;;;1.17;0.65;;;21.40;94.10;;;;;;5037584;28;20028;-66
2023/09/14 12:06:28;;;;;;;2.05;0.80;;;21.20;93.50;;;;;;5038919;28;20083;-66
2023/09/14 12:08:54;;;;;;;1.88;0.70;;;21.10;95.30;;;;;;5038752;28;20021;-65
2023/09/14 12:11:22;;;;;;;1.88;1.00;;;21.00;95.10;;;;;;5038751;28;20052;-65
2023/09/14 12:13:52;;;;;;;1.85;1.00;;;21.10;99.70;;;;;;5038834;28;20525;-66
2023/09/14 12:16:23;;;;;;;2.03;1.00;;;21.10;96.60;;;;;;5038791;28;20037;-66
2023/09/14 12:18:50;;;;;;;2.33;0.95;;;21.20;96.60;;;;;;5038570;28;20552;-66
2023/09/14 12:21:19;;;;;;;1.92;1.00;;;21.40;97.50;;;;;;5038572;28;20022;-66
2023/09/14 12:23:47;;;;;;;2.92;1.05;;;21.50;94.20;;;;;;5038361;28;20815;-66
2023/09/14 12:26:15;;;;;;;2.08;1.00;;;21.50;95.80;;;;;;5035827;28;20025;-66
2023/09/14 12:28:43;;;;;;;1.77;0.98;;;21.50;93.20;;;;;;5038199;28;20024;-66
2023/09/14 12:31:10;;;;;;;1.92;0.75;;;21.50;91.80;;;;;;5038410;28;20460;-66
2023/09/14 12:33:37;;;;;;;1.58;0.77;;;21.40;92.00;;;;;;5038405;28;20014;-66
2023/09/14 12:36:03;;;;;;;1.48;1.00;;;21.40;92.10;;;;;;5038267;28;20021;-66
2023/09/14 12:38:32;;;;;;;1.60;0.88;;;21.30;91.50;;;;;;5033525;28;20026;-66
2023/09/14 12:40:58;;;;;;;3.42;0.90;;;21.30;93.70;;;;;;5031937;28;20033;-64
2023/09/14 12:43:25;;;;;;;2.70;1.00;;;21.40;90.60;;;;;;5042578;28;20022;-65
2023/09/14 12:45:51;;;;;;;1.27;0.80;;;21.40;92.10;;;;;;5046830;28;20029;-65
2023/09/14 12:48:18;;;;;;;2.50;0.82;;;21.60;90.80;;;;;;5039712;28;20053;-64
2023/09/14 12:50:44;;;;;;;2.33;0.95;;;21.70;90.70;;;;;;5038114;28;20033;-65
2023/09/14 12:53:13;;;;;;;1.77;0.80;;;21.80;88.40;;;;;;5039967;28;20017;-65
2023/09/14 12:55:46;;;;;;;1.42;0.90;;;21.90;90.20;;;;;;5037679;28;20033;-65
2023/09/14 12:58:17;;;;;;;2.88;0.82;;;21.90;91.50;;;;;;5042940;28;20032;-64
2023/09/14 13:00:45;;;;;;;2.35;0.90;;;21.90;87.40;;;;;;5043588;28;20018;-64
2023/09/14 13:03:12;;;;;;;1.33;0.80;;;21.90;88.10;;;;;;5037480;28;20022;-64
2023/09/14 13:05:38;;;;;;;2.10;0.85;;;21.80;87.10;;;;;;5037337;28;20092;-64
2023/09/14 13:08:04;;;;;;;2.30;0.80;;;21.70;89.70;;;;;;5037721;28;20517;-65
2023/09/14 13:10:34;;;;;;;3.40;0.90;;;21.60;87.30;;;;;;5037317;28;20033;-64
2023/09/14 13:13:10;;;;;;;1.05;0.70;;;21.60;89.10;;;;;;5034983;28;20422;-64
2023/09/14 13:15:41;;;;;;;2.88;0.85;;;21.60;91.40;;;;;;5035615;28;20030;-64
2023/09/14 13:18:09;;;;;;;1.45;0.80;;;21.60;90.70;;;;;;5037309;28;20033;-65
2023/09/14 13:20:36;;;;;;;1.70;0.90;;;21.60;88.70;;;;;;5035977;28;20018;-65
2023/09/14 13:23:04;;;;;;;1.65;0.75;;;21.50;88.70;;;;;;5037213;28;20528;-65
2023/09/14 13:25:30;;;;;;;1.83;1.05;;;21.50;90.40;;;;;;5036625;28;20021;-65
2023/09/14 13:27:58;;;;;;;2.33;0.90;;;21.60;90.50;;;;;;5037127;28;20048;-65
2023/09/14 13:30:25;;;;;;;1.58;0.93;;;21.60;91.80;;;;;;5037222;28;20092;-65
2023/09/14 13:32:55;;;;;;;1.60;0.80;;;21.70;87.20;;;;;;5036884;28;20045;-65
2023/09/14 13:35:22;;;;;;;5.68;1.10;;;21.70;86.60;;;;;;5036683;28;20017;-64
2023/09/14 13:37:49;;;;;;;2.30;1.08;;;21.80;85.70;;;;;;5036800;28;20025;-64
2023/09/14 13:40:18;;;;;;;2.40;0.88;;;21.80;90.60;;;;;;5035735;28;20018;-64
2023/09/14 13:42:48;;;;;;;2.67;1.23;;;21.80;85.80;;;;;;5036976;28;20025;-64
2023/09/14 13:45:14;;;;;;;1.67;0.85;;;21.90;86.70;;;;;;5036652;28;20021;-65
2023/09/14 13:47:41;;;;;;;1.17;0.90;;;21.90;85.70;;;;;;5037046;28;20053;-64
2023/09/14 13:50:08;;;;;;;1.40;0.70;;;21.90;84.20;;;;;;5038339;28;20469;-64
2023/09/14 13:52:34;;;;;;;3.08;0.90;;;21.80;83.90;;;;;;5038448;28;20394;-64
2023/09/14 13:55:00;;;;;;;3.03;0.80;;;21.80;83.50;;;;;;5036526;28;20021;-64
2023/09/14 13:57:26;;;;;;;2.15;1.10;;;21.70;83.40;;;;;;5036572;28;20067;-64
2023/09/14 13:59:52;;;;;;;2.92;1.10;;;21.70;86.50;;;;;;5036990;28;20516;-64
2023/09/14 14:02:18;;;;;;;1.85;0.90;;;21.70;83.90;;;;;;5036812;28;20076;-63
2023/09/14 14:04:45;;;;;;;2.33;1.00;;;21.60;82.90;;;;;;5036826;28;20021;-64
2023/09/14 14:07:11;;;;;;;3.03;0.90;;;21.70;83.90;;;;;;5036633;28;20113;-65
2023/09/14 14:09:38;;;;;;;1.80;0.90;;;21.80;83.20;;;;;;5034044;28;20060;-64
2023/09/14 14:12:04;;;;;;;1.95;0.90;;;21.90;81.70;;;;;;5036060;28;20402;-65
2023/09/14 14:14:30;;;;;;;1.98;0.90;;;21.90;80.80;;;;;;5036726;28;20029;-65
2023/09/14 14:16:57;;;;;;;1.52;1.00;;;21.90;80.80;;;;;;5036634;28;20417;-65